Time;durP1;ratioP1;P1;durP2;ratioP2;P2;SDS_P1;SDS_P2;PMS_P1;PMS_P2;Temp;Humidity;BMP_temperature;BMP_pressure;BME280_temperature;BME280_humidity;BME280_pressure;Samples;Min_cycle;Max_cycle;Signal;HPM_P1;HPM_P2
2022/04/15 00:01:29;;;;;;;77.65;44.13;;;7.90;99.90;;;;;;5012200;28;20037;-70
2022/04/15 00:03:56;;;;;;;86.10;48.30;;;7.90;99.90;;;;;;5013173;28;20057;-73
2022/04/15 00:06:24;;;;;;;48.90;29.92;;;7.90;99.90;;;;;;5012603;28;20049;-73
2022/04/15 00:08:50;;;;;;;48.95;31.90;;;8.00;99.90;;;;;;5012486;28;20029;-72
2022/04/15 00:11:17;;;;;;;53.00;32.25;;;7.90;99.90;;;;;;5012950;28;20033;-70
2022/04/15 00:13:45;;;;;;;35.78;21.58;;;7.80;99.90;;;;;;5009230;28;20030;-69
2022/04/15 00:16:11;;;;;;;38.20;23.95;;;7.80;99.90;;;;;;4993460;28;20451;-70
2022/04/15 00:18:37;;;;;;;36.30;25.65;;;7.90;99.90;;;;;;5004163;28;20164;-72
2022/04/15 00:21:04;;;;;;;43.67;26.00;;;7.80;99.90;;;;;;5013515;28;20399;-72
2022/04/15 00:23:30;;;;;;;50.88;30.88;;;7.80;99.90;;;;;;5013103;28;20073;-66
2022/04/15 00:25:57;;;;;;;41.30;27.45;;;7.70;99.90;;;;;;5012463;28;20042;-70
2022/04/15 00:28:23;;;;;;;46.65;28.10;;;7.80;99.90;;;;;;5013650;28;20025;-71
2022/04/15 00:30:49;;;;;;;47.00;27.00;;;7.70;99.90;;;;;;5012336;28;20113;-68
2022/04/15 00:33:15;;;;;;;43.80;25.73;;;7.70;99.90;;;;;;5013386;28;20599;-72
2022/04/15 00:35:41;;;;;;;38.15;26.85;;;7.70;99.90;;;;;;5013436;28;20044;-69
2022/04/15 00:38:07;;;;;;;42.22;26.52;;;7.60;99.90;;;;;;5012866;28;20105;-72
2022/04/15 00:40:34;;;;;;;38.08;25.27;;;7.50;99.90;;;;;;5013220;28;20034;-73
2022/04/15 00:43:00;;;;;;;39.70;25.13;;;7.50;99.90;;;;;;5013324;28;20491;-71
2022/04/15 00:45:26;;;;;;;48.28;28.58;;;7.30;99.90;;;;;;5013135;28;20530;-71
2022/04/15 00:47:53;;;;;;;40.17;27.02;;;7.40;99.90;;;;;;5013043;28;20034;-72
2022/04/15 00:50:20;;;;;;;48.33;29.40;;;7.30;99.90;;;;;;5013083;28;20413;-67
2022/04/15 00:52:48;;;;;;;53.65;32.35;;;7.30;99.90;;;;;;5012558;28;20385;-68
2022/04/15 00:55:16;;;;;;;44.58;27.90;;;7.40;99.90;;;;;;5013066;28;20476;-70
2022/04/15 00:57:50;;;;;;;45.13;28.33;;;7.30;99.90;;;;;;5013221;28;20026;-70
2022/04/15 01:00:18;;;;;;;49.05;27.63;;;7.20;99.90;;;;;;5012841;28;20032;-66
2022/04/15 01:02:44;;;;;;;47.38;28.38;;;7.00;99.90;;;;;;5012962;28;20092;-71
2022/04/15 01:05:12;;;;;;;40.85;28.33;;;7.00;99.90;;;;;;5012668;28;20022;-72
2022/04/15 01:07:41;;;;;;;46.33;28.40;;;6.90;99.90;;;;;;5012724;28;20046;-71
2022/04/15 01:10:12;;;;;;;50.50;29.05;;;6.80;99.90;;;;;;5012234;28;20026;-72
2022/04/15 01:12:41;;;;;;;52.33;28.77;;;6.80;99.90;;;;;;5012645;28;20022;-67
2022/04/15 01:15:10;;;;;;;53.00;29.10;;;6.80;99.90;;;;;;5012780;28;20491;-73
2022/04/15 01:17:37;;;;;;;44.83;26.83;;;6.80;99.90;;;;;;5012574;28;20026;-66
2022/04/15 01:20:04;;;;;;;43.75;26.23;;;6.70;99.90;;;;;;5012451;28;20022;-72
2022/04/15 01:22:41;;;;;;;46.17;26.95;;;6.50;99.90;;;;;;5012019;28;20156;-70
2022/04/15 01:25:13;;;;;;;44.70;28.05;;;6.50;99.90;;;;;;5012691;28;20480;-73
2022/04/15 01:27:44;;;;;;;43.95;27.88;;;6.60;99.90;;;;;;5012166;28;20450;-73
2022/04/15 01:30:12;;;;;;;42.42;25.35;;;6.60;99.90;;;;;;5012153;28;20025;-67
2022/04/15 01:32:38;;;;;;;42.30;25.27;;;6.60;99.90;;;;;;5012585;28;20029;-73
2022/04/15 01:35:06;;;;;;;40.88;26.40;;;6.50;99.90;;;;;;5010236;28;20030;-67
2022/04/15 01:37:34;;;;;;;38.88;24.65;;;6.60;99.90;;;;;;5011723;28;20022;-70
2022/04/15 01:40:00;;;;;;;40.60;25.48;;;6.60;99.90;;;;;;5011940;28;20034;-68
2022/04/15 01:42:26;;;;;;;40.90;25.38;;;6.60;99.90;;;;;;5012500;28;20033;-67
2022/04/15 01:44:52;;;;;;;44.78;24.40;;;6.60;99.90;;;;;;5012116;28;20026;-68
2022/04/15 01:47:18;;;;;;;36.33;23.75;;;6.60;99.90;;;;;;5011792;28;20483;-67
2022/04/15 01:49:44;;;;;;;38.65;22.85;;;6.60;99.90;;;;;;5012178;28;20042;-70
2022/04/15 01:52:10;;;;;;;40.50;22.88;;;6.50;99.90;;;;;;5012091;28;20037;-71
2022/04/15 01:54:36;;;;;;;40.17;25.02;;;6.50;99.90;;;;;;5012156;28;20030;-72
2022/04/15 01:57:03;;;;;;;35.83;22.55;;;6.50;99.90;;;;;;5011737;28;21632;-72
2022/04/15 01:59:29;;;;;;;65.78;41.88;;;6.40;99.90;;;;;;5012254;28;20392;-68
2022/04/15 02:01:55;;;;;;;50.10;30.52;;;6.30;99.90;;;;;;5012424;28;20030;-69
2022/04/15 02:04:25;;;;;;;56.65;28.85;;;6.40;99.90;;;;;;5012673;28;20065;-69
2022/04/15 02:06:52;;;;;;;42.20;26.55;;;6.40;99.90;;;;;;5011801;28;20038;-72
2022/04/15 02:09:18;;;;;;;42.47;27.33;;;6.40;99.90;;;;;;5011880;28;20037;-71
2022/04/15 02:11:44;;;;;;;48.78;25.52;;;6.40;99.90;;;;;;5011975;28;20034;-70
2022/04/15 02:14:12;;;;;;;45.53;25.38;;;6.30;99.90;;;;;;5011808;28;20061;-69
2022/04/15 02:16:39;;;;;;;39.67;25.23;;;6.40;99.90;;;;;;5011473;28;20038;-73
2022/04/15 02:19:05;;;;;;;45.75;27.05;;;6.30;99.90;;;;;;5011878;28;20076;-69
2022/04/15 02:21:31;;;;;;;50.75;28.33;;;6.20;99.90;;;;;;5011665;28;20033;-73
2022/04/15 02:23:57;;;;;;;50.22;26.20;;;6.10;99.90;;;;;;5011841;28;20042;-69
2022/04/15 02:26:23;;;;;;;46.28;24.98;;;6.00;99.90;;;;;;5011475;28;20092;-71
2022/04/15 02:28:49;;;;;;;43.25;27.15;;;6.00;99.90;;;;;;5011889;28;20033;-67
2022/04/15 02:31:15;;;;;;;47.38;27.55;;;6.00;99.90;;;;;;5011726;28;20033;-70
2022/04/15 02:33:41;;;;;;;45.05;29.63;;;5.90;99.90;;;;;;5011424;28;20026;-71
2022/04/15 02:36:07;;;;;;;43.13;27.08;;;5.90;99.90;;;;;;5011804;28;20056;-70
2022/04/15 02:38:33;;;;;;;41.60;24.85;;;5.90;99.90;;;;;;5011343;28;20360;-73
2022/04/15 02:40:59;;;;;;;34.65;23.02;;;5.70;99.90;;;;;;5011523;28;20021;-72
2022/04/15 02:43:31;;;;;;;41.78;24.55;;;5.80;99.90;;;;;;5011384;28;20022;-71
2022/04/15 02:46:02;;;;;;;40.47;24.60;;;5.70;99.90;;;;;;5011179;28;20042;-66
2022/04/15 02:48:32;;;;;;;38.67;22.98;;;5.70;99.90;;;;;;5013143;28;20026;-70
2022/04/15 02:50:59;;;;;;;40.78;22.77;;;5.80;99.90;;;;;;5014698;28;20064;-71
2022/04/15 02:53:26;;;;;;;33.35;20.13;;;5.70;99.90;;;;;;5015027;28;20026;-71
2022/04/15 02:55:52;;;;;;;32.60;20.17;;;5.80;99.90;;;;;;5015164;28;20034;-69
2022/04/15 02:58:19;;;;;;;31.38;19.63;;;5.80;99.90;;;;;;5015256;28;20018;-68
2022/04/15 03:00:45;;;;;;;34.70;20.40;;;5.80;99.90;;;;;;5014529;28;20038;-73
2022/04/15 03:03:11;;;;;;;29.58;19.60;;;5.70;99.90;;;;;;5015224;28;20029;-72
2022/04/15 03:05:41;;;;;;;37.63;20.17;;;5.70;99.90;;;;;;5014695;28;20030;-72
2022/04/15 03:08:07;;;;;;;32.67;19.00;;;5.70;99.90;;;;;;5015011;28;20113;-66
2022/04/15 03:10:33;;;;;;;30.27;18.10;;;5.60;99.90;;;;;;5014412;28;20022;-73
2022/04/15 03:12:59;;;;;;;32.30;19.63;;;5.60;99.90;;;;;;5015194;28;20499;-70
2022/04/15 03:15:25;;;;;;;27.63;18.10;;;5.60;99.90;;;;;;5014398;28;20022;-67
2022/04/15 03:17:52;;;;;;;33.30;18.30;;;5.60;99.90;;;;;;5014875;28;20392;-73
2022/04/15 03:20:19;;;;;;;30.50;18.73;;;5.60;99.90;;;;;;5014176;28;20021;-67
2022/04/15 03:22:45;;;;;;;34.92;19.70;;;5.40;99.90;;;;;;5014669;28;20068;-73
2022/04/15 03:25:19;;;;;;;38.78;20.52;;;5.30;99.90;;;;;;5014680;28;20030;-71
2022/04/15 03:27:45;;;;;;;28.33;18.70;;;5.20;99.90;;;;;;5014803;28;20037;-68
2022/04/15 03:30:12;;;;;;;59.80;28.35;;;5.20;99.90;;;;;;5014140;28;20564;-70
2022/04/15 03:32:48;;;;;;;83.10;46.83;;;5.20;99.90;;;;;;5014495;28;20120;-74
2022/04/15 03:35:20;;;;;;;108.20;65.38;;;5.30;99.90;;;;;;5014303;28;20018;-71
2022/04/15 03:37:46;;;;;;;89.45;55.30;;;5.20;99.90;;;;;;5014223;28;20384;-68
2022/04/15 03:40:12;;;;;;;92.22;52.25;;;5.30;99.90;;;;;;5014325;28;20061;-72
2022/04/15 03:42:46;;;;;;;71.15;42.08;;;5.50;99.90;;;;;;5014284;28;20506;-69
2022/04/15 03:45:14;;;;;;;51.70;28.77;;;5.50;99.90;;;;;;5013799;28;20472;-71
2022/04/15 03:47:42;;;;;;;37.28;23.75;;;5.50;99.90;;;;;;5014126;28;20030;-72
2022/04/15 03:50:10;;;;;;;39.55;24.45;;;5.60;99.90;;;;;;5013456;28;20073;-71
2022/04/15 03:52:42;;;;;;;37.75;23.65;;;5.40;99.90;;;;;;5013873;28;20037;-73
2022/04/15 03:55:12;;;;;;;40.17;23.35;;;5.40;99.90;;;;;;5014108;28;20033;-70
2022/04/15 03:57:38;;;;;;;35.42;22.08;;;5.40;99.90;;;;;;5014091;28;20034;-73
2022/04/15 04:00:12;;;;;;;37.60;21.75;;;5.50;99.90;;;;;;5013157;28;20499;-67
2022/04/15 04:02:38;;;;;;;33.38;21.13;;;5.50;99.90;;;;;;5001693;28;20022;-73
2022/04/15 04:05:05;;;;;;;34.05;20.95;;;5.60;99.90;;;;;;5013525;28;20478;-70
2022/04/15 04:07:31;;;;;;;34.17;19.13;;;5.50;99.90;;;;;;5013324;28;20536;-72
2022/04/15 04:09:57;;;;;;;28.42;18.23;;;5.60;99.90;;;;;;5013366;28;20032;-73
2022/04/15 04:12:23;;;;;;;30.63;18.80;;;5.60;99.90;;;;;;5013306;28;20499;-74
2022/04/15 04:14:49;;;;;;;34.25;18.52;;;5.60;99.90;;;;;;5013105;28;20018;-74
2022/04/15 04:17:15;;;;;;;32.20;18.27;;;5.70;99.90;;;;;;5012891;28;20041;-73
2022/04/15 04:19:41;;;;;;;31.92;20.25;;;5.60;99.90;;;;;;5011783;28;20030;-74
2022/04/15 04:22:06;;;;;;;30.25;18.27;;;5.70;99.90;;;;;;5012477;28;20476;-73
2022/04/15 04:24:32;;;;;;;29.98;18.58;;;5.80;99.90;;;;;;5011905;28;20484;-74
2022/04/15 04:26:58;;;;;;;33.42;17.80;;;5.80;99.90;;;;;;5012371;28;20048;-73
2022/04/15 04:29:24;;;;;;;32.08;19.38;;;5.90;99.90;;;;;;5013039;28;20098;-74
2022/04/15 04:31:50;;;;;;;29.95;18.55;;;6.10;99.90;;;;;;5012662;28;20049;-76
2022/04/15 04:34:15;;;;;;;30.95;19.60;;;6.30;99.90;;;;;;5008272;28;20026;-74
2022/04/15 04:36:41;;;;;;;35.45;17.90;;;6.90;99.90;;;;;;5011207;28;20068;-74
2022/04/15 04:39:12;;;;;;;26.65;17.80;;;7.40;99.90;;;;;;5019333;28;20034;-75
2022/04/15 04:41:39;;;;;;;29.38;17.80;;;8.30;99.90;;;;;;5030105;28;20045;-75
2022/04/15 04:44:06;;;;;;;28.73;18.02;;;8.30;99.90;;;;;;5012884;28;20076;-73
2022/04/15 04:46:32;;;;;;;35.60;20.52;;;8.60;99.90;;;;;;5008791;28;20033;-76
2022/04/15 04:48:59;;;;;;;41.53;23.27;;;9.90;98.70;;;;;;5014018;28;20049;-76
2022/04/15 04:51:26;;;;;;;64.57;39.33;;;10.70;94.80;;;;;;5020873;28;20046;-76
2022/04/15 04:53:52;;;;;;;63.53;36.22;;;11.50;91.80;;;;;;5013147;28;20038;-76
2022/04/15 04:56:18;;;;;;;43.85;27.08;;;12.40;88.30;;;;;;5013154;28;20563;-76
2022/04/15 04:58:44;;;;;;;31.75;21.02;;;13.10;85.20;;;;;;5012934;28;20093;-77
2022/04/15 05:01:10;;;;;;;41.20;20.92;;;13.60;80.90;;;;;;5012590;28;20022;-76
2022/04/15 05:03:36;;;;;;;37.40;19.83;;;14.10;78.60;;;;;;5013243;28;20018;-76
2022/04/15 05:06:03;;;;;;;41.03;23.65;;;14.20;77.40;;;;;;5012713;28;20076;-76
2022/04/15 05:08:28;;;;;;;38.45;22.65;;;13.80;76.20;;;;;;5012495;28;20045;-77
2022/04/15 05:10:54;;;;;;;38.28;22.90;;;13.80;77.70;;;;;;5011980;28;20065;-76
2022/04/15 05:13:20;;;;;;;37.08;24.13;;;13.60;78.00;;;;;;5012237;28;20029;-76
2022/04/15 05:15:46;;;;;;;63.97;31.17;;;12.80;78.80;;;;;;5012109;28;20547;-72
2022/04/15 05:18:12;;;;;;;46.00;27.77;;;12.40;80.10;;;;;;5012169;28;20053;-76
2022/04/15 05:20:37;;;;;;;45.45;26.80;;;12.00;81.80;;;;;;5012119;28;20030;-76
2022/04/15 05:23:03;;;;;;;50.72;25.98;;;11.70;83.30;;;;;;5012042;28;20383;-73
2022/04/15 05:25:29;;;;;;;47.55;29.08;;;11.40;86.20;;;;;;5011340;28;20472;-73
2022/04/15 05:27:58;;;;;;;45.10;27.08;;;11.60;88.50;;;;;;5011830;28;20040;-77
2022/04/15 05:30:24;;;;;;;41.22;27.15;;;11.50;88.30;;;;;;5011758;28;20125;-76
2022/04/15 05:32:51;;;;;;;49.00;27.13;;;11.70;88.20;;;;;;5012411;28;20026;-76
2022/04/15 05:35:16;;;;;;;41.63;24.73;;;11.50;90.10;;;;;;5011788;28;20034;-76
2022/04/15 05:37:47;;;;;;;28.75;18.90;;;11.50;90.20;;;;;;5027250;28;20464;-76
2022/04/15 05:40:13;;;;;;;36.08;21.75;;;11.40;91.30;;;;;;5011728;28;20030;-72
2022/04/15 05:42:39;;;;;;;44.40;29.55;;;11.70;90.70;;;;;;5011998;28;20022;-77
2022/04/15 05:45:05;;;;;;;45.33;31.70;;;11.80;89.20;;;;;;5026932;28;20042;-76
2022/04/15 05:47:31;;;;;;;44.08;27.27;;;12.00;89.60;;;;;;5011852;28;20064;-77
2022/04/15 05:49:57;;;;;;;44.63;29.98;;;11.90;89.10;;;;;;5011733;28;20073;-73
2022/04/15 05:52:22;;;;;;;46.30;30.45;;;11.70;89.80;;;;;;5011943;28;20376;-77
2022/04/15 05:54:48;;;;;;;40.80;29.27;;;11.90;90.60;;;;;;5012030;28;20456;-75
2022/04/15 05:57:14;;;;;;;43.05;29.55;;;11.70;91.50;;;;;;5011615;28;20037;-75
2022/04/15 05:59:41;;;;;;;38.67;27.00;;;11.90;91.80;;;;;;5027147;28;20483;-75
2022/04/15 06:02:07;;;;;;;35.63;25.45;;;11.90;91.50;;;;;;5012016;28;20025;-76
2022/04/15 06:04:33;;;;;;;37.40;25.00;;;12.10;92.70;;;;;;5011835;28;20032;-75
2022/04/15 06:06:59;;;;;;;55.15;27.77;;;12.40;91.70;;;;;;5011565;28;20025;-75
2022/04/15 06:09:25;;;;;;;43.45;28.02;;;12.50;93.10;;;;;;5011600;28;20384;-76
2022/04/15 06:11:53;;;;;;;43.30;30.20;;;12.90;91.90;;;;;;5011923;28;20114;-76
2022/04/15 06:14:22;;;;;;;52.25;29.50;;;13.00;92.50;;;;;;5011701;28;20065;-75
2022/04/15 06:16:49;;;;;;;49.50;30.90;;;12.90;92.70;;;;;;5011224;28;20038;-76
2022/04/15 06:19:16;;;;;;;53.75;31.30;;;13.00;93.40;;;;;;5011749;28;20045;-77
2022/04/15 06:21:42;;;;;;;53.60;29.70;;;13.30;92.30;;;;;;5010930;28;20018;-76
2022/04/15 06:24:09;;;;;;;52.72;30.35;;;13.40;92.50;;;;;;5013737;28;20092;-76
2022/04/15 06:26:35;;;;;;;52.10;29.50;;;13.80;91.60;;;;;;5014899;28;20055;-75
2022/04/15 06:29:01;;;;;;;42.72;28.65;;;14.00;90.30;;;;;;5015115;28;20116;-77
2022/04/15 06:31:27;;;;;;;49.78;28.27;;;14.20;90.60;;;;;;5015506;28;20034;-74
2022/04/15 06:33:53;;;;;;;44.38;26.75;;;14.50;86.50;;;;;;5015085;28;20120;-76
2022/04/15 06:36:20;;;;;;;44.60;27.27;;;14.60;86.40;;;;;;5015370;28;20104;-76
2022/04/15 06:38:46;;;;;;;43.53;27.13;;;14.80;82.90;;;;;;5015513;28;20349;-76
2022/04/15 06:41:12;;;;;;;40.85;26.38;;;14.80;80.80;;;;;;5014710;28;20117;-75
2022/04/15 06:43:39;;;;;;;39.22;25.90;;;15.10;79.70;;;;;;5014928;28;20034;-76
2022/04/15 06:46:05;;;;;;;55.85;26.92;;;15.30;80.20;;;;;;5015458;28;20092;-76
2022/04/15 06:48:31;;;;;;;46.63;26.10;;;15.60;79.80;;;;;;5014812;28;20101;-76
2022/04/15 06:50:57;;;;;;;38.47;24.17;;;15.80;80.10;;;;;;5014946;28;20487;-76
2022/04/15 06:53:23;;;;;;;37.60;26.05;;;15.80;76.50;;;;;;5015390;28;20097;-74
2022/04/15 06:55:53;;;;;;;33.85;23.88;;;16.10;73.80;;;;;;5014815;28;20034;-76
2022/04/15 06:58:20;;;;;;;39.55;24.85;;;15.90;70.10;;;;;;5014805;28;20033;-73
2022/04/15 07:00:46;;;;;;;35.10;24.80;;;15.80;73.50;;;;;;5015203;28;20026;-75
2022/04/15 07:03:13;;;;;;;34.72;23.70;;;15.80;72.80;;;;;;5014986;28;20034;-76
2022/04/15 07:05:40;;;;;;;38.20;22.90;;;15.70;74.30;;;;;;5029778;28;20020;-75
2022/04/15 07:08:10;;;;;;;40.88;24.08;;;15.70;74.50;;;;;;5013235;28;20030;-75
2022/04/15 07:10:40;;;;;;;34.83;21.80;;;15.60;75.10;;;;;;5013646;28;20105;-75
2022/04/15 07:13:06;;;;;;;33.78;22.73;;;15.70;72.90;;;;;;5013788;28;20053;-76
2022/04/15 07:15:32;;;;;;;33.20;24.63;;;15.80;73.20;;;;;;5011079;28;20030;-75
2022/04/15 07:17:59;;;;;;;34.78;22.45;;;15.90;73.50;;;;;;4997937;28;20117;-71
2022/04/15 07:20:26;;;;;;;33.72;24.52;;;16.30;75.80;;;;;;5012058;28;20025;-75
2022/04/15 07:22:59;;;;;;;35.67;23.10;;;16.40;72.60;;;;;;4995311;28;20037;-73
2022/04/15 07:25:25;;;;;;;33.83;23.60;;;16.50;72.00;;;;;;4994465;28;20034;-76
2022/04/15 07:27:52;;;;;;;40.63;26.63;;;16.70;70.70;;;;;;4994807;28;20060;-75
2022/04/15 07:30:18;;;;;;;38.72;22.52;;;16.90;71.00;;;;;;5000543;28;20084;-68
2022/04/15 07:32:44;;;;;;;33.63;19.85;;;16.90;70.40;;;;;;5001929;28;20551;-74
2022/04/15 07:35:10;;;;;;;35.42;21.75;;;17.10;70.00;;;;;;5011556;28;20036;-75
2022/04/15 07:37:36;;;;;;;31.75;21.83;;;17.30;68.60;;;;;;5013057;28;20108;-74
2022/04/15 07:40:03;;;;;;;31.85;21.13;;;17.30;69.00;;;;;;5013679;28;20029;-74
2022/04/15 07:42:29;;;;;;;33.55;20.60;;;17.70;68.50;;;;;;5013921;28;20423;-75
2022/04/15 07:44:54;;;;;;;29.35;18.40;;;17.80;67.20;;;;;;5013478;28;20030;-75
2022/04/15 07:47:20;;;;;;;32.35;18.63;;;18.30;69.20;;;;;;4995492;28;20026;-75
2022/04/15 07:49:46;;;;;;;32.55;19.90;;;18.40;67.40;;;;;;4995286;28;20455;-75
2022/04/15 07:52:12;;;;;;;31.10;18.52;;;18.80;67.40;;;;;;4993761;28;20438;-76
2022/04/15 07:54:38;;;;;;;34.47;20.35;;;18.60;67.20;;;;;;4993769;28;20117;-76
2022/04/15 07:57:04;;;;;;;24.42;13.52;;;18.80;64.70;;;;;;4993827;28;20022;-76
2022/04/15 07:59:30;;;;;;;25.45;15.40;;;18.90;64.50;;;;;;5005256;28;20018;-75
2022/04/15 08:01:58;;;;;;;28.55;16.50;;;19.00;61.30;;;;;;5011884;28;20104;-76
2022/04/15 08:04:24;;;;;;;27.77;16.73;;;18.90;59.50;;;;;;5012501;28;20080;-76
2022/04/15 08:06:50;;;;;;;30.35;18.52;;;19.00;63.30;;;;;;5013468;28;20033;-76
2022/04/15 08:09:16;;;;;;;22.50;14.52;;;19.00;61.00;;;;;;5012657;28;20492;-75
2022/04/15 08:11:42;;;;;;;25.98;12.73;;;19.00;58.10;;;;;;5011846;28;20034;-76
2022/04/15 08:14:08;;;;;;;25.92;15.35;;;19.30;57.30;;;;;;5011760;28;20101;-76
2022/04/15 08:16:34;;;;;;;27.73;14.23;;;19.40;60.90;;;;;;5011692;28;20033;-74
2022/04/15 08:19:00;;;;;;;22.75;15.38;;;19.70;61.20;;;;;;5012713;28;20026;-73
2022/04/15 08:21:26;;;;;;;23.92;14.60;;;19.90;62.90;;;;;;5002648;28;20029;-76
2022/04/15 08:23:51;;;;;;;31.95;14.77;;;20.10;59.10;;;;;;5002450;28;20161;-75
2022/04/15 08:26:17;;;;;;;23.83;16.73;;;20.10;59.20;;;;;;4995376;28;20046;-76
2022/04/15 08:28:43;;;;;;;29.02;16.73;;;20.00;60.90;;;;;;4993840;28;20136;-77
2022/04/15 08:31:09;;;;;;;26.40;16.48;;;20.10;62.70;;;;;;5007943;28;20014;-76
2022/04/15 08:33:35;;;;;;;23.90;17.17;;;20.50;59.10;;;;;;4993800;28;20033;-76
2022/04/15 08:36:03;;;;;;;15.43;10.10;;;20.40;59.10;;;;;;5001949;28;20022;-68
2022/04/15 08:38:32;;;;;;;19.85;10.40;;;20.40;57.70;;;;;;5016110;28;20495;-70
2022/04/15 08:40:59;;;;;;;22.25;11.70;;;20.40;61.00;;;;;;5029485;28;20049;-69
2022/04/15 08:43:26;;;;;;;18.77;11.55;;;20.50;59.30;;;;;;5020925;28;20041;-68
2022/04/15 08:45:53;;;;;;;22.58;12.98;;;20.70;59.00;;;;;;5011179;28;20034;-70
2022/04/15 08:48:19;;;;;;;20.42;12.95;;;20.80;60.70;;;;;;5003635;28;20100;-75
2022/04/15 08:50:44;;;;;;;22.05;13.38;;;20.90;58.80;;;;;;5012885;28;20488;-75
2022/04/15 08:53:11;;;;;;;20.08;11.90;;;20.80;61.20;;;;;;5010085;28;20083;-74
2022/04/15 08:55:37;;;;;;;16.27;9.82;;;20.70;61.10;;;;;;5001433;28;20061;-75
2022/04/15 08:58:03;;;;;;;12.27;8.60;;;20.70;58.00;;;;;;5012384;28;20038;-73
2022/04/15 09:00:29;;;;;;;14.40;9.23;;;20.80;57.20;;;;;;5007304;28;20022;-76
2022/04/15 09:02:55;;;;;;;20.13;8.13;;;20.70;57.90;;;;;;4993143;28;20113;-75
2022/04/15 09:05:24;;;;;;;14.00;7.75;;;20.70;61.90;;;;;;5011256;28;20486;-76
2022/04/15 09:08:01;;;;;;;13.18;8.05;;;20.80;60.00;;;;;;5000387;28;20038;-76
2022/04/15 09:10:27;;;;;;;14.23;7.45;;;21.10;59.90;;;;;;5003530;28;20349;-76
2022/04/15 09:12:52;;;;;;;17.20;8.68;;;21.30;59.00;;;;;;5002180;28;20026;-73
2022/04/15 09:15:18;;;;;;;12.68;7.53;;;21.30;59.40;;;;;;5008008;28;20447;-77
2022/04/15 09:17:49;;;;;;;15.07;7.68;;;21.50;58.70;;;;;;5012546;28;20022;-76
2022/04/15 09:20:17;;;;;;;15.70;6.85;;;21.70;60.20;;;;;;5013294;28;20054;-74
2022/04/15 09:22:46;;;;;;;10.10;6.32;;;21.50;58.90;;;;;;5015272;28;20089;-76
2022/04/15 09:25:17;;;;;;;14.20;6.40;;;21.60;60.60;;;;;;4993443;28;20050;-76
2022/04/15 09:27:44;;;;;;;11.30;5.93;;;21.60;58.40;;;;;;5031305;28;20092;-77
2022/04/15 09:30:10;;;;;;;14.50;7.25;;;22.00;60.60;;;;;;5010366;28;20053;-75
2022/04/15 09:32:40;;;;;;;13.55;7.32;;;21.90;58.00;;;;;;5009748;28;20033;-76
2022/04/15 09:35:08;;;;;;;13.27;7.60;;;22.00;58.70;;;;;;5008016;28;20022;-76
2022/04/15 09:37:43;;;;;;;14.55;7.72;;;22.00;56.60;;;;;;5007140;28;20495;-75
2022/04/15 09:40:20;;;;;;;18.05;7.97;;;22.10;60.00;;;;;;5005082;28;20026;-75
2022/04/15 09:42:53;;;;;;;14.75;6.95;;;22.20;57.00;;;;;;5009158;28;20033;-70
2022/04/15 09:45:23;;;;;;;20.60;7.47;;;22.30;57.00;;;;;;4998362;28;20076;-73
2022/04/15 09:47:52;;;;;;;9.52;5.40;;;22.30;57.80;;;;;;4993424;28;20795;-75
2022/04/15 09:50:36;;;;;;;15.32;7.38;;;22.20;59.10;;;;;;5002424;28;20037;-76
2022/04/15 09:53:17;;;;;;;14.20;7.60;;;22.40;58.60;;;;;;5011434;28;20042;-77
2022/04/15 09:55:48;;;;;;;14.73;6.32;;;22.50;57.40;;;;;;5007032;28;20050;-78
2022/04/15 09:58:16;;;;;;;14.05;7.38;;;22.60;56.10;;;;;;5001648;28;20018;-77
2022/04/15 10:00:47;;;;;;;11.38;6.13;;;22.60;55.60;;;;;;4995500;28;20531;-77
2022/04/15 10:03:18;;;;;;;8.65;5.53;;;22.60;55.90;;;;;;4994427;28;20027;-78
2022/04/15 10:05:44;;;;;;;11.45;5.55;;;22.50;54.80;;;;;;5010489;28;20033;-75
2022/04/15 10:08:10;;;;;;;10.75;5.80;;;22.30;54.90;;;;;;5000180;28;20046;-77
2022/04/15 10:10:37;;;;;;;9.95;5.70;;;22.40;58.90;;;;;;5010253;28;20040;-77
2022/04/15 10:13:05;;;;;;;13.25;6.35;;;22.40;55.80;;;;;;5009778;28;20022;-66
2022/04/15 10:15:38;;;;;;;15.00;6.65;;;22.60;57.40;;;;;;5006704;28;20026;-77
2022/04/15 10:18:05;;;;;;;19.42;7.00;;;22.40;54.20;;;;;;4992209;28;20038;-77
2022/04/15 10:20:31;;;;;;;11.55;6.03;;;22.50;57.50;;;;;;5002140;28;20152;-77
2022/04/15 10:23:03;;;;;;;11.45;6.00;;;22.50;56.50;;;;;;5010296;28;20035;-77
2022/04/15 10:25:30;;;;;;;14.20;7.22;;;22.60;55.30;;;;;;5011380;28;20030;-69
2022/04/15 10:28:12;;;;;;;8.73;4.78;;;22.70;54.00;;;;;;5025525;28;20396;-76
2022/04/15 10:30:44;;;;;;;13.23;5.78;;;22.70;52.90;;;;;;5001281;28;20030;-76
2022/04/15 10:33:26;;;;;;;8.27;5.20;;;22.80;56.90;;;;;;4999099;28;20042;-77
2022/04/15 10:35:57;;;;;;;9.75;4.82;;;22.80;51.90;;;;;;5009244;28;20143;-74
2022/04/15 10:38:23;;;;;;;12.40;5.07;;;23.00;56.00;;;;;;5000067;28;20091;-77
2022/04/15 10:40:49;;;;;;;11.38;5.72;;;22.90;53.00;;;;;;5005250;28;20376;-77
2022/04/15 10:43:23;;;;;;;10.65;5.18;;;23.00;52.40;;;;;;4995456;28;20033;-69
2022/04/15 10:45:54;;;;;;;15.65;6.25;;;23.00;56.20;;;;;;4990615;28;20049;-75
2022/04/15 10:48:30;;;;;;;9.27;5.40;;;23.00;54.90;;;;;;5007238;28;20034;-77
2022/04/15 10:50:56;;;;;;;15.23;6.10;;;23.00;51.70;;;;;;5011472;28;20042;-72
2022/04/15 10:53:24;;;;;;;7.15;4.50;;;23.00;50.50;;;;;;5004458;28;20018;-77
2022/04/15 10:55:54;;;;;;;8.32;5.65;;;23.00;54.80;;;;;;5009384;28;20034;-72
2022/04/15 10:58:21;;;;;;;9.57;5.38;;;23.20;53.40;;;;;;4999830;28;20066;-77
2022/04/15 11:01:18;;;;;;;9.02;4.70;;;23.40;52.40;;;;;;5006456;28;20048;-67
2022/04/15 11:03:56;;;;;;;10.90;5.20;;;23.30;50.00;;;;;;5002268;28;20022;-76
2022/04/15 11:06:28;;;;;;;9.73;4.65;;;23.40;51.80;;;;;;5006446;28;20488;-75
2022/04/15 11:08:55;;;;;;;9.25;5.13;;;23.30;50.50;;;;;;5002920;28;20030;-77
2022/04/15 11:11:35;;;;;;;8.77;5.22;;;23.40;54.80;;;;;;5011727;28;20018;-64
2022/04/15 11:14:04;;;;;;;9.93;5.03;;;23.50;51.40;;;;;;5010381;28;20484;-76
2022/04/15 11:16:48;;;;;;;7.25;3.78;;;23.60;50.20;;;;;;5007758;28;20037;-72
2022/04/15 11:19:32;;;;;;;8.73;4.30;;;23.70;51.20;;;;;;5007359;28;20028;-77
2022/04/15 11:22:01;;;;;;;11.15;4.63;;;23.60;47.40;;;;;;5001931;28;20512;-69
2022/04/15 11:24:30;;;;;;;10.02;4.65;;;23.60;50.40;;;;;;5010301;28;20719;-77
2022/04/15 11:27:03;;;;;;;6.40;3.80;;;23.60;51.30;;;;;;5009956;28;20045;-73
2022/04/15 11:29:40;;;;;;;9.18;4.55;;;23.60;48.10;;;;;;5013400;28;20372;-75
2022/04/15 11:32:07;;;;;;;6.22;3.45;;;23.60;47.80;;;;;;5013913;28;20498;-74
2022/04/15 11:34:34;;;;;;;7.97;4.35;;;23.40;47.90;;;;;;5004700;28;20081;-75
2022/04/15 11:37:09;;;;;;;9.50;4.45;;;23.40;48.80;;;;;;5007804;28;20042;-75
2022/04/15 11:39:35;;;;;;;7.72;3.45;;;23.60;49.40;;;;;;5012656;28;20104;-76
2022/04/15 11:42:10;;;;;;;10.35;3.97;;;23.60;46.10;;;;;;5009298;28;20480;-76
2022/04/15 11:44:46;;;;;;;8.50;3.70;;;23.50;46.40;;;;;;5020129;28;20086;-76
2022/04/15 11:47:19;;;;;;;7.78;3.90;;;23.40;46.50;;;;;;5015268;28;20029;-76
2022/04/15 11:49:46;;;;;;;10.48;3.67;;;23.40;47.30;;;;;;5014291;28;20038;-74
2022/04/15 11:52:26;;;;;;;15.10;4.43;;;23.50;46.60;;;;;;5013926;28;20495;-77
2022/04/15 11:54:53;;;;;;;10.00;3.97;;;23.60;47.00;;;;;;5014129;28;20022;-72
2022/04/15 11:57:20;;;;;;;6.95;4.13;;;23.70;48.30;;;;;;5013991;28;20034;-70
2022/04/15 11:59:48;;;;;;;6.68;3.83;;;23.80;46.90;;;;;;5014177;28;20018;-75
2022/04/15 12:02:15;;;;;;;9.52;4.28;;;23.90;48.60;;;;;;5013805;28;20030;-78
2022/04/15 12:04:55;;;;;;;7.43;3.78;;;24.00;50.40;;;;;;5013760;28;20060;-76
2022/04/15 12:07:23;;;;;;;6.25;3.80;;;24.20;49.50;;;;;;5013719;28;20080;-75
2022/04/15 12:09:50;;;;;;;7.25;4.07;;;24.10;49.20;;;;;;5013750;28;20026;-75
2022/04/15 12:12:16;;;;;;;9.18;4.18;;;24.10;50.70;;;;;;5013473;28;20030;-75
2022/04/15 12:14:43;;;;;;;6.75;4.03;;;24.00;47.50;;;;;;5013697;28;20042;-78
2022/04/15 12:17:17;;;;;;;7.63;4.25;;;24.00;47.80;;;;;;5013780;28;20057;-76
2022/04/15 12:19:43;;;;;;;8.23;4.43;;;24.00;49.50;;;;;;5013624;28;20065;-75
2022/04/15 12:22:09;;;;;;;8.93;4.65;;;24.10;49.10;;;;;;5013575;28;20034;-76
2022/04/15 12:24:35;;;;;;;7.00;4.65;;;24.10;48.20;;;;;;5013241;28;20053;-76
2022/04/15 12:27:01;;;;;;;7.43;4.18;;;24.10;48.20;;;;;;5013117;28;20033;-75
2022/04/15 12:32:20;;;;;;;9.02;4.75;;;24.00;48.10;;;;;;5013779;28;20436;-68
2022/04/15 12:34:54;;;;;;;8.35;4.38;;;24.00;48.10;;;;;;5013249;28;20050;-76
2022/04/15 12:37:35;;;;;;;5.50;4.32;;;24.10;47.80;;;;;;5013341;28;20029;-77
2022/04/15 12:40:06;;;;;;;7.78;3.58;;;24.10;48.20;;;;;;5013303;28;20088;-77
2022/04/15 12:42:33;;;;;;;7.20;3.90;;;24.20;49.70;;;;;;5013225;28;20061;-78